Terminal Aerodrome Forecast
Issued by NWS

Home | Current Version | Previous Version | Graphics & Text | Print | Product List | Glossary On
Versions: 1 2 3 4 5 6 7 8 9 10 11 12 13 14
725
FTUS43 KGRB 190520
TAFCWA
TAF
KCWA 190520Z 1906/2006 22004KT P6SM SCT200
     FM191500 22007KT P6SM BKN200 WS018/26035KT
     FM200400 25007KT P6SM BKN100
      AMD LTD TO CLD VIS AND WIND TIL 191200=

USA.gov is the U.S. government's official web portal to all federal, state and local government web resources and services.